createdAt,value
2022-08-19T00:00:19.820Z,13.13
2022-08-19T00:02:23.505Z,14.60
2022-08-19T00:06:46.579Z,17.40
2022-08-19T00:08:51.700Z,14.10
2022-08-19T00:10:55.239Z,15.03
2022-08-19T00:12:58.844Z,16.80
2022-08-19T00:15:02.435Z,12.43
2022-08-19T00:17:06.953Z,13.10
2022-08-19T00:19:10.743Z,13.73
2022-08-19T00:21:14.740Z,12.80
2022-08-19T00:23:18.824Z,13.43
2022-08-19T00:27:41.071Z,12.57
2022-08-19T00:29:45.036Z,11.90
2022-08-19T00:31:50.632Z,12.67
2022-08-19T00:33:54.464Z,12.83
2022-08-19T00:35:58.031Z,12.23
2022-08-19T00:38:01.708Z,13.17
2022-08-19T00:40:08.383Z,13.27
2022-08-19T00:42:15.751Z,15.77
2022-08-19T00:44:21.384Z,12.37
2022-08-19T00:48:45.251Z,12.37
2022-08-19T00:50:51.584Z,12.47
2022-08-19T00:52:56.181Z,13.23
2022-08-19T00:55:00.721Z,12.90
2022-08-19T00:57:08.151Z,12.43
2022-08-19T00:59:12.133Z,13.37
2022-08-19T01:01:15.886Z,12.60
2022-08-19T01:03:22.269Z,12.07
2022-08-19T01:05:29.059Z,12.70
2022-08-19T01:09:49.848Z,13.47
2022-08-19T01:11:53.956Z,12.07
2022-08-19T01:13:57.817Z,13.50
2022-08-19T01:16:05.120Z,12.20
2022-08-19T01:18:11.636Z,12.83
2022-08-19T01:20:18.415Z,12.60
2022-08-19T01:22:33.288Z,12.73
2022-08-19T01:26:51.331Z,18.60
2022-08-19T01:29:00.950Z,13.73
2022-08-19T01:31:08.185Z,13.37
2022-08-19T01:33:09.386Z,13.63
2022-08-19T01:35:16.603Z,25.97
2022-08-19T01:37:27.137Z,14.80
2022-08-19T01:41:43.903Z,15.67
2022-08-19T01:44:03.855Z,18.20
2022-08-19T01:45:53.559Z,14.10
2022-08-19T01:48:01.999Z,15.87
2022-08-19T01:50:04.566Z,14.33
2022-08-19T01:52:08.212Z,15.23
2022-08-19T01:54:13.295Z,14.20
2022-08-19T01:56:17.660Z,14.50
2022-08-19T01:58:24.701Z,14.10
2022-08-19T02:02:50.414Z,14.20
2022-08-19T02:05:04.765Z,14.57
2022-08-19T02:07:09.434Z,15.13
2022-08-19T02:09:13.012Z,15.63
2022-08-19T02:11:23.153Z,14.53
2022-08-19T02:13:27.208Z,13.77
2022-08-19T02:15:31.071Z,13.47
2022-08-19T02:17:34.995Z,13.90
2022-08-19T02:21:54.451Z,13.07
2022-08-19T02:23:58.645Z,13.07
2022-08-19T02:26:02.247Z,17.50
2022-08-19T02:28:06.345Z,15.43
2022-08-19T02:30:14.611Z,19.57
2022-08-19T02:32:19.949Z,11.40
2022-08-19T02:34:25.302Z,9.53
2022-08-19T02:36:29.221Z,10.50
2022-08-19T02:40:52.888Z,9.00
2022-08-19T02:42:57.782Z,10.63
2022-08-19T02:45:01.324Z,10.57
2022-08-19T02:47:05.520Z,9.23
2022-08-19T02:49:09.535Z,11.23
2022-08-19T02:51:18.668Z,13.23
2022-08-19T02:53:22.916Z,10.60
2022-08-19T02:55:26.500Z,10.37
2022-08-19T02:57:32.388Z,12.83
2022-08-19T03:01:54.152Z,12.77
2022-08-19T03:03:59.814Z,12.57
2022-08-19T03:06:13.026Z,12.20
2022-08-19T03:08:16.920Z,11.03
2022-08-19T03:10:20.801Z,11.80
2022-08-19T03:12:24.380Z,10.17
2022-08-19T03:14:28.380Z,10.17
2022-08-19T03:18:51.678Z,11.33
2022-08-19T03:20:55.337Z,11.60
2022-08-19T03:25:14.661Z,10.23
2022-08-19T03:27:18.317Z,10.70
2022-08-19T03:29:29.446Z,11.37
2022-08-19T03:31:44.252Z,12.77
2022-08-19T03:36:07.674Z,12.37
2022-08-19T03:38:11.277Z,12.47
2022-08-19T03:40:16.635Z,16.03
2022-08-19T03:42:38.481Z,17.03
2022-08-19T03:44:25.801Z,20.67
2022-08-19T03:46:32.512Z,17.40
2022-08-19T03:48:37.663Z,15.20
2022-08-19T03:52:57.472Z,14.37
2022-08-19T03:55:01.065Z,16.17
2022-08-19T03:57:06.606Z,13.93
2022-08-19T03:59:14.146Z,13.43
2022-08-19T04:01:21.146Z,14.13
2022-08-19T04:03:27.264Z,12.07
2022-08-19T04:05:31.422Z,13.63
2022-08-19T04:07:36.028Z,13.13
2022-08-19T04:09:39.639Z,10.30
2022-08-19T04:11:45.573Z,11.23
2022-08-19T04:13:49.899Z,12.53
2022-08-19T04:15:54.074Z,13.73
2022-08-19T04:17:57.886Z,12.07
2022-08-19T04:20:01.429Z,13.77
2022-08-19T04:22:07.203Z,13.33
2022-08-19T04:24:12.908Z,13.07
2022-08-19T04:26:19.010Z,11.90
2022-08-19T04:28:22.894Z,15.83
2022-08-19T04:30:26.512Z,13.93
2022-08-19T04:32:31.772Z,14.43
2022-08-19T04:34:35.355Z,14.73
2022-08-19T04:38:58.370Z,12.80
2022-08-19T04:41:21.532Z,15.20
2022-08-19T04:43:25.107Z,13.50
2022-08-19T04:45:28.772Z,14.70
2022-08-19T04:47:48.230Z,15.17
2022-08-19T04:51:57.014Z,14.60
2022-08-19T04:54:01.559Z,14.73
2022-08-19T04:56:08.904Z,15.43
2022-08-19T04:58:12.499Z,14.57
2022-08-19T05:00:16.415Z,14.60
2022-08-19T05:02:20.000Z,14.37
2022-08-19T05:04:23.562Z,14.13
2022-08-19T05:06:27.171Z,13.17
2022-08-19T05:08:31.751Z,15.13
2022-08-19T05:10:38.024Z,14.63
2022-08-19T05:14:58.335Z,14.17
2022-08-19T05:17:26.153Z,14.77
2022-08-19T05:19:26.527Z,17.30
2022-08-19T05:21:48.922Z,16.83
2022-08-19T05:23:52.847Z,16.17
2022-08-19T05:25:56.581Z,18.83
2022-08-19T05:28:00.032Z,17.03
2022-08-19T05:30:04.482Z,22.53
2022-08-19T05:32:09.153Z,18.97
2022-08-19T05:34:18.220Z,21.57
2022-08-19T05:36:20.251Z,18.83
2022-08-19T05:38:23.715Z,16.30
2022-08-19T05:40:27.324Z,16.13
2022-08-19T05:42:32.479Z,16.03
2022-08-19T05:44:38.087Z,15.10
2022-08-19T05:46:43.486Z,16.07
2022-08-19T05:48:47.576Z,14.53
2022-08-19T05:50:51.159Z,16.73
2022-08-19T05:52:54.908Z,17.33
2022-08-19T05:54:58.611Z,16.13
2022-08-19T05:57:03.144Z,16.47
2022-08-19T05:59:08.822Z,17.20
2022-08-19T06:01:15.795Z,15.03
2022-08-19T06:03:19.339Z,15.10
2022-08-19T06:05:22.924Z,16.27
2022-08-19T06:07:26.619Z,14.23
2022-08-19T06:09:30.533Z,14.70
2022-08-19T06:11:36.877Z,15.60
2022-08-19T06:13:40.467Z,15.23
2022-08-19T06:15:44.867Z,15.90
2022-08-19T06:20:14.127Z,17.83
2022-08-19T06:22:21.810Z,18.70
2022-08-19T06:24:30.400Z,18.67
2022-08-19T06:28:53.586Z,24.27
2022-08-19T06:30:57.189Z,21.27
2022-08-19T06:33:00.681Z,22.00
2022-08-19T06:35:06.008Z,21.93
2022-08-19T06:37:09.959Z,24.40
2022-08-19T06:39:15.821Z,22.10
2022-08-19T06:41:19.405Z,20.53
2022-08-19T06:43:22.981Z,23.23
2022-08-19T06:45:34.391Z,23.93
2022-08-19T06:47:34.072Z,23.10
2022-08-19T06:49:38.320Z,21.17
2022-08-19T06:54:00.706Z,20.93
2022-08-19T06:56:04.775Z,21.10
2022-08-19T06:58:09.739Z,21.90
2022-08-19T07:00:14.590Z,20.77
2022-08-19T07:04:25.767Z,21.87
2022-08-19T07:08:45.242Z,20.43
2022-08-19T07:10:50.726Z,22.20
2022-08-19T07:12:59.411Z,20.33
2022-08-19T07:15:05.116Z,20.13
2022-08-19T07:17:12.039Z,20.80
2022-08-19T07:19:16.365Z,21.13
2022-08-19T07:21:24.598Z,18.83
2022-08-19T07:25:52.897Z,20.83
2022-08-19T07:27:54.452Z,19.37
2022-08-19T07:29:57.893Z,20.10
2022-08-19T07:32:04.892Z,22.10
2022-08-19T07:34:09.805Z,20.50
2022-08-19T07:36:15.625Z,21.83
2022-08-19T07:38:19.209Z,21.03
2022-08-19T07:40:26.152Z,22.60
2022-08-19T07:42:30.495Z,21.43
2022-08-19T07:46:53.286Z,21.10
2022-08-19T07:48:57.088Z,20.70
2022-08-19T07:51:03.644Z,23.83
2022-08-19T07:53:07.221Z,19.70
2022-08-19T07:55:40.110Z,22.10
2022-08-19T07:57:19.408Z,22.50
2022-08-19T07:59:23.704Z,26.07
2022-08-19T08:01:28.918Z,27.67
2022-08-19T08:03:50.779Z,24.87
2022-08-19T08:06:11.964Z,24.33
2022-08-19T08:08:33.168Z,19.97
2022-08-19T08:10:36.932Z,21.33
2022-08-19T08:15:03.354Z,21.53
2022-08-19T08:17:10.886Z,19.17
2022-08-19T08:19:20.295Z,20.67
2022-08-19T08:21:21.156Z,20.43
2022-08-19T08:23:25.842Z,21.30
2022-08-19T08:25:32.514Z,19.13
2022-08-19T08:27:39.910Z,19.37
2022-08-19T08:29:44.916Z,15.60
2022-08-19T08:31:49.102Z,16.70
2022-08-19T08:33:54.560Z,15.93
2022-08-19T08:35:58.583Z,16.77
2022-08-19T08:38:04.113Z,17.47
2022-08-19T08:40:13.311Z,16.57
2022-08-19T08:44:40.640Z,15.07
2022-08-19T08:49:11.374Z,14.60
2022-08-19T08:51:20.402Z,14.03
2022-08-19T08:53:29.818Z,14.30
2022-08-19T08:55:36.864Z,13.27
2022-08-19T09:00:04.347Z,13.87
2022-08-19T09:02:10.185Z,16.00
2022-08-19T09:04:14.624Z,18.03
2022-08-19T09:08:44.221Z,10.70
2022-08-19T09:10:55.212Z,13.40
2022-08-19T09:13:02.679Z,11.30
2022-08-19T09:15:11.484Z,12.13
2022-08-19T09:17:15.452Z,11.57
2022-08-19T09:19:22.372Z,11.73
2022-08-19T09:21:30.395Z,12.87
2022-08-19T09:23:31.212Z,13.43
2022-08-19T09:25:37.174Z,11.63
2022-08-19T09:27:43.597Z,12.60
2022-08-19T09:29:49.650Z,12.63
2022-08-19T09:32:07.088Z,13.67
2022-08-19T09:34:21.099Z,11.77
2022-08-19T09:36:34.752Z,13.23
2022-08-19T09:38:34.310Z,12.53
2022-08-19T09:40:40.375Z,11.37
2022-08-19T09:42:50.060Z,15.10
2022-08-19T09:44:53.869Z,13.27
2022-08-19T09:46:57.578Z,19.27
2022-08-19T09:51:20.075Z,20.10
2022-08-19T09:53:25.640Z,19.43
2022-08-19T09:55:31.984Z,21.33
2022-08-19T09:57:36.905Z,18.13
2022-08-19T09:59:41.170Z,17.63
2022-08-19T10:01:44.816Z,17.60
2022-08-19T10:03:52.054Z,15.53
2022-08-19T10:08:15.335Z,15.17
2022-08-19T10:10:19.313Z,15.37
2022-08-19T10:12:24.525Z,14.17
2022-08-19T10:14:29.902Z,15.33
2022-08-19T10:16:37.152Z,17.23
2022-08-19T10:18:44.193Z,16.67
2022-08-19T10:20:51.637Z,14.47
2022-08-19T10:22:53.995Z,17.10
2022-08-19T10:24:57.589Z,15.23
2022-08-19T10:27:03.511Z,15.00
2022-08-19T10:29:09.415Z,16.10
2022-08-19T10:31:15.707Z,17.83
2022-08-19T10:33:38.920Z,14.53
2022-08-19T10:35:28.767Z,13.73
2022-08-19T10:37:33.156Z,18.60
2022-08-19T10:39:43.003Z,27.17
2022-08-19T10:41:43.820Z,12.57
2022-08-19T10:43:48.520Z,10.23
2022-08-19T10:45:57.254Z,9.07
2022-08-19T10:48:00.823Z,10.03
2022-08-19T10:50:28.672Z,9.70
2022-08-19T10:52:38.893Z,9.33
2022-08-19T10:55:05.220Z,9.13
2022-08-19T10:57:06.435Z,9.57
2022-08-19T10:59:10.456Z,8.93
2022-08-19T11:01:14.058Z,11.60
2022-08-19T11:03:18.289Z,12.37
2022-08-19T11:05:24.411Z,12.57
2022-08-19T11:07:27.948Z,11.97
2022-08-19T11:09:34.321Z,12.70
2022-08-19T11:11:39.692Z,12.63
2022-08-19T11:13:44.567Z,13.97
2022-08-19T11:15:48.054Z,12.53
2022-08-19T11:17:55.091Z,12.63
2022-08-19T11:19:59.076Z,13.33
2022-08-19T11:22:03.771Z,12.83
2022-08-19T11:26:25.196Z,14.00
2022-08-19T11:28:29.074Z,14.40
2022-08-19T11:30:33.728Z,13.87
2022-08-19T11:32:37.194Z,15.17
2022-08-19T11:34:41.096Z,15.70
2022-08-19T11:36:46.760Z,14.83
2022-08-19T11:38:51.943Z,12.47
2022-08-19T11:40:59.611Z,12.17
2022-08-19T11:43:03.569Z,15.43
2022-08-19T11:45:09.423Z,12.13
2022-08-19T11:47:12.951Z,14.37
2022-08-19T11:49:19.526Z,11.50
2022-08-19T11:51:24.946Z,19.87
2022-08-19T11:53:30.251Z,23.10
2022-08-19T11:55:33.828Z,14.07
2022-08-19T11:57:37.524Z,12.73
2022-08-19T11:59:41.084Z,14.07
2022-08-19T12:01:44.784Z,12.80
2022-08-19T12:03:51.667Z,12.90
2022-08-19T12:05:55.259Z,13.20
2022-08-19T12:07:59.089Z,14.23
2022-08-19T12:10:03.556Z,13.97
2022-08-19T12:12:08.688Z,13.50
2022-08-19T12:14:14.748Z,13.90
2022-08-19T12:16:20.297Z,13.70
2022-08-19T12:18:24.982Z,14.83
2022-08-19T12:20:28.491Z,12.73
2022-08-19T12:22:32.034Z,13.27
2022-08-19T12:24:36.253Z,13.27
2022-08-19T12:26:52.650Z,12.63
2022-08-19T12:28:46.316Z,15.07
2022-08-19T12:30:51.369Z,13.57
2022-08-19T12:32:55.976Z,12.00
2022-08-19T12:35:01.766Z,12.67
2022-08-19T12:37:06.924Z,10.67
2022-08-19T12:39:10.731Z,9.63
2022-08-19T12:41:18.740Z,12.00
2022-08-19T12:43:22.338Z,16.07
2022-08-19T12:45:25.802Z,11.67
2022-08-19T12:47:30.786Z,10.40
2022-08-19T12:54:41.594Z,11.83
2022-08-19T12:59:04.857Z,10.90
2022-08-19T13:01:11.015Z,12.73
2022-08-19T13:03:14.656Z,31.77
2022-08-19T13:05:21.917Z,13.00
2022-08-19T13:07:25.495Z,11.07
2022-08-19T13:09:29.170Z,13.20
2022-08-19T13:11:34.143Z,12.00
2022-08-19T13:13:37.819Z,16.33
2022-08-19T13:15:45.605Z,12.73
2022-08-19T13:17:50.680Z,13.00
2022-08-19T13:19:54.308Z,11.30
2022-08-19T13:22:00.377Z,11.80
2022-08-19T13:24:05.250Z,11.17
2022-08-19T13:26:10.676Z,11.30
2022-08-19T13:28:14.303Z,11.17
2022-08-19T13:30:40.098Z,11.83
2022-08-19T13:33:01.608Z,11.40
2022-08-19T13:35:06.249Z,11.33
2022-08-19T13:37:09.899Z,14.97
2022-08-19T13:39:13.728Z,13.03
2022-08-19T13:41:19.113Z,12.07
2022-08-19T13:43:25.942Z,14.90
2022-08-19T13:47:48.660Z,16.60
2022-08-19T13:49:52.565Z,14.50
2022-08-19T13:54:14.087Z,19.03
2022-08-19T13:56:24.183Z,13.90
2022-08-19T13:58:26.193Z,15.33
2022-08-19T14:00:32.156Z,14.87
2022-08-19T14:02:35.664Z,13.83
2022-08-19T14:04:39.353Z,13.87
2022-08-19T14:06:42.979Z,14.67
2022-08-19T14:11:06.544Z,14.90
2022-08-19T14:13:08.659Z,15.57
2022-08-19T14:15:13.521Z,18.83
2022-08-19T14:17:17.388Z,15.37
2022-08-19T14:19:21.685Z,13.97
2022-08-19T14:21:26.024Z,15.30
2022-08-19T14:23:29.748Z,16.40
2022-08-19T14:25:34.840Z,16.00
2022-08-19T14:27:39.792Z,12.83
2022-08-19T14:29:43.444Z,12.80
2022-08-19T14:31:47.019Z,20.77
2022-08-19T14:33:51.227Z,11.83
2022-08-19T14:35:54.831Z,13.87
2022-08-19T14:40:22.577Z,14.10
2022-08-19T14:42:26.120Z,14.83
2022-08-19T14:44:31.610Z,17.37
2022-08-19T14:46:35.215Z,15.73
2022-08-19T14:48:39.215Z,13.43
2022-08-19T14:53:09.061Z,15.53
2022-08-19T14:55:11.095Z,13.43
2022-08-19T14:57:16.456Z,14.70
2022-08-19T14:59:20.038Z,16.50
2022-08-19T15:01:24.198Z,19.23
2022-08-19T15:03:27.867Z,18.70
2022-08-19T15:05:32.375Z,19.10
2022-08-19T15:07:36.154Z,19.27
2022-08-19T15:12:10.778Z,16.90
2022-08-19T15:14:15.704Z,15.40
2022-08-19T15:16:20.670Z,15.20
2022-08-19T15:18:24.200Z,13.37
2022-08-19T15:20:27.898Z,14.60
2022-08-19T15:22:32.428Z,16.53
2022-08-19T15:24:36.200Z,14.73
2022-08-19T15:26:43.216Z,17.63
2022-08-19T15:28:47.492Z,15.87
2022-08-19T15:30:51.393Z,16.83
2022-08-19T15:32:57.381Z,18.43
2022-08-19T15:35:01.896Z,13.60
2022-08-19T15:37:07.936Z,14.47
2022-08-19T15:39:11.507Z,13.80
2022-08-19T15:41:25.410Z,18.00
2022-08-19T15:43:29.296Z,14.40
2022-08-19T15:45:33.034Z,15.17
2022-08-19T15:47:37.996Z,13.40
2022-08-19T15:49:41.828Z,14.27
2022-08-19T15:54:05.965Z,14.23
2022-08-19T15:56:10.639Z,16.23
2022-08-19T15:58:33.576Z,14.63
2022-08-19T16:01:05.721Z,15.60
2022-08-19T16:05:48.727Z,13.17
2022-08-19T16:07:52.367Z,14.30
2022-08-19T16:09:56.455Z,14.13
2022-08-19T16:12:02.770Z,16.40
2022-08-19T16:14:08.398Z,13.57
2022-08-19T16:16:12.088Z,19.47
2022-08-19T16:18:15.691Z,16.40
2022-08-19T16:20:21.780Z,12.73
2022-08-19T16:22:31.139Z,17.00
2022-08-19T16:24:34.679Z,10.90
2022-08-19T16:26:38.969Z,12.83
2022-08-19T16:28:43.530Z,16.43
2022-08-19T16:30:48.848Z,12.27
2022-08-19T16:32:52.492Z,13.03
2022-08-19T16:37:14.177Z,14.10
2022-08-19T16:39:18.434Z,16.67
2022-08-19T16:41:22.758Z,14.67
2022-08-19T16:43:26.417Z,11.80
2022-08-19T16:45:30.617Z,13.93
2022-08-19T16:47:34.880Z,13.67
2022-08-19T16:49:54.329Z,16.03
2022-08-19T16:51:44.785Z,13.27
2022-08-19T16:53:48.528Z,15.33
2022-08-19T16:55:53.553Z,15.40
2022-08-19T16:58:01.168Z,15.37
2022-08-19T17:00:09.195Z,13.70
2022-08-19T17:02:14.402Z,13.33
2022-08-19T17:04:18.542Z,14.33
2022-08-19T17:08:40.165Z,14.10
2022-08-19T17:11:01.927Z,12.83
2022-08-19T17:15:08.174Z,13.20
2022-08-19T17:17:12.221Z,14.43
2022-08-19T17:19:16.676Z,12.53
2022-08-19T17:21:22.455Z,12.90
2022-08-19T17:23:42.969Z,15.60
2022-08-19T17:25:32.404Z,12.57
2022-08-19T17:27:36.003Z,17.83
2022-08-19T17:29:41.901Z,12.97
2022-08-19T17:31:45.149Z,12.83
2022-08-19T17:33:50.208Z,13.23
2022-08-19T17:38:12.567Z,13.53
2022-08-19T17:40:16.284Z,12.50
2022-08-19T17:42:21.808Z,12.43
2022-08-19T17:44:38.523Z,17.90
2022-08-19T17:46:44.555Z,12.07
2022-08-19T17:48:52.136Z,12.70
2022-08-19T17:53:14.525Z,12.87
2022-08-19T17:55:18.112Z,13.53
2022-08-19T17:57:22.285Z,14.57
2022-08-19T17:59:26.527Z,13.37
2022-08-19T18:01:52.070Z,12.30
2022-08-19T18:03:37.757Z,15.93
2022-08-19T18:05:43.635Z,15.07
2022-08-19T18:07:50.577Z,16.07
2022-08-19T18:12:10.031Z,13.83
2022-08-19T18:14:15.210Z,13.93
2022-08-19T18:16:21.196Z,13.17
2022-08-19T18:18:26.052Z,14.47
2022-08-19T18:22:48.436Z,11.97
2022-08-19T18:24:53.196Z,11.87
2022-08-19T18:26:57.647Z,12.03
2022-08-19T18:31:18.098Z,15.97
2022-08-19T18:33:22.970Z,12.07
2022-08-19T18:35:29.927Z,10.13
2022-08-19T18:37:34.179Z,8.07
2022-08-19T18:39:56.304Z,10.97
2022-08-19T18:42:18.176Z,12.57
2022-08-19T18:44:40.458Z,11.87
2022-08-19T18:47:02.460Z,16.40
2022-08-19T18:49:08.664Z,12.60
2022-08-19T18:51:15.714Z,12.17
2022-08-19T18:55:40.619Z,11.50
2022-08-19T19:00:04.091Z,14.03
2022-08-19T19:02:08.744Z,18.67
2022-08-19T19:04:14.282Z,13.60
2022-08-19T19:08:38.275Z,14.60
2022-08-19T19:13:00.925Z,14.33
2022-08-19T19:15:06.353Z,13.73
2022-08-19T19:17:14.361Z,12.60
2022-08-19T19:21:36.360Z,12.90
2022-08-19T19:25:55.416Z,12.97
2022-08-19T19:27:59.659Z,11.77
2022-08-19T19:30:04.140Z,10.97
2022-08-19T19:34:30.209Z,11.50
2022-08-19T19:36:35.086Z,11.27
2022-08-19T19:38:39.266Z,13.03
2022-08-19T19:43:04.025Z,12.20
2022-08-19T19:45:10.350Z,11.03
2022-08-19T19:49:32.148Z,11.37
2022-08-19T19:51:38.886Z,12.17
2022-08-19T19:53:44.859Z,12.27
2022-08-19T19:55:49.364Z,10.93
2022-08-19T19:57:54.691Z,15.73
2022-08-19T19:59:59.956Z,14.83
2022-08-19T20:02:05.178Z,18.03
2022-08-19T20:04:11.742Z,16.83
2022-08-19T20:06:19.041Z,14.53
2022-08-19T20:08:41.859Z,14.90
2022-08-19T20:13:04.576Z,15.87
2022-08-19T20:15:10.495Z,16.17
2022-08-19T20:17:17.503Z,18.63
2022-08-19T20:19:23.756Z,17.53
2022-08-19T20:24:08.600Z,15.93
2022-08-19T20:28:13.819Z,10.97
2022-08-19T20:30:20.216Z,11.40
2022-08-19T20:34:40.523Z,12.47
2022-08-19T20:39:00.608Z,10.97
2022-08-19T20:41:05.464Z,11.73
2022-08-19T20:43:11.500Z,12.47
2022-08-19T20:45:18.242Z,12.20
2022-08-19T20:47:23.959Z,11.33
2022-08-19T20:49:27.838Z,12.37
2022-08-19T20:53:48.339Z,15.50
2022-08-19T20:55:51.920Z,15.27
2022-08-19T20:57:55.975Z,15.03
2022-08-19T20:59:59.908Z,16.03
2022-08-19T21:02:03.648Z,14.80
2022-08-19T21:04:07.297Z,20.03
2022-08-19T21:06:12.140Z,15.13
2022-08-19T21:08:18.113Z,15.83
2022-08-19T21:10:22.091Z,14.87
2022-08-19T21:12:26.544Z,14.53
2022-08-19T21:14:30.456Z,15.90
2022-08-19T21:16:34.070Z,14.70
2022-08-19T21:18:37.859Z,14.60
2022-08-19T21:20:42.441Z,18.13
2022-08-19T21:22:46.330Z,13.97
2022-08-19T21:24:50.416Z,14.30
2022-08-19T21:26:54.046Z,14.97
2022-08-19T21:28:57.671Z,15.53
2022-08-19T21:31:01.404Z,15.27
2022-08-19T21:33:05.568Z,16.57
2022-08-19T21:35:09.801Z,17.50
2022-08-19T21:39:30.276Z,15.97
2022-08-19T21:41:34.620Z,13.90
2022-08-19T21:43:39.045Z,13.20
2022-08-19T21:45:43.096Z,13.17
2022-08-19T21:47:47.567Z,14.10
2022-08-19T21:49:51.440Z,13.30
2022-08-19T21:51:55.043Z,11.97
2022-08-19T21:53:58.632Z,11.57
2022-08-19T21:56:02.483Z,10.57
2022-08-19T21:58:06.124Z,10.37
2022-08-19T22:00:14.952Z,13.03
2022-08-19T22:02:21.271Z,14.47
2022-08-19T22:04:25.327Z,13.33
2022-08-19T22:06:30.160Z,11.93
2022-08-19T22:08:33.740Z,11.27
2022-08-19T22:10:37.792Z,12.40
2022-08-19T22:12:51.333Z,9.67
2022-08-19T22:14:49.509Z,12.93
2022-08-19T22:16:53.600Z,12.43
2022-08-19T22:18:57.213Z,12.87
2022-08-19T22:21:00.960Z,10.77
2022-08-19T22:23:06.721Z,11.20
2022-08-19T22:27:28.425Z,11.70
2022-08-19T22:29:33.583Z,10.90
2022-08-19T22:31:37.471Z,10.70
2022-08-19T22:33:41.052Z,11.87
2022-08-19T22:35:46.423Z,11.37
2022-08-19T22:37:51.240Z,11.50
2022-08-19T22:39:55.396Z,11.20
2022-08-19T22:41:58.961Z,10.73
2022-08-19T22:44:03.263Z,10.87
2022-08-19T22:46:17.717Z,10.67
2022-08-19T22:50:31.473Z,8.77
2022-08-19T22:52:35.345Z,9.40
2022-08-19T22:54:39.440Z,9.47
2022-08-19T22:56:43.032Z,12.17
2022-08-19T22:58:47.118Z,11.80
2022-08-19T23:00:52.603Z,11.50
2022-08-19T23:02:57.492Z,11.17
2022-08-19T23:05:03.158Z,12.60
2022-08-19T23:07:06.991Z,11.57
2022-08-19T23:09:10.762Z,12.13
2022-08-19T23:11:16.160Z,11.43
2022-08-19T23:13:21.237Z,11.23
2022-08-19T23:15:27.644Z,12.23
2022-08-19T23:17:31.249Z,12.27
2022-08-19T23:19:35.355Z,11.53
2022-08-19T23:21:39.131Z,12.67
2022-08-19T23:23:42.783Z,11.87
2022-08-19T23:25:48.768Z,12.70
2022-08-19T23:28:10.540Z,10.97
2022-08-19T23:30:26.368Z,10.90
2022-08-19T23:32:34.978Z,11.07
2022-08-19T23:34:38.628Z,12.37
2022-08-19T23:36:42.540Z,12.20
2022-08-19T23:38:48.415Z,12.37
2022-08-19T23:40:54.705Z,12.17
2022-08-19T23:42:58.287Z,13.47
2022-08-19T23:45:05.978Z,11.20
2022-08-19T23:49:27.668Z,11.80
2022-08-19T23:51:31.392Z,13.23
2022-08-19T23:53:37.012Z,12.10
2022-08-19T23:55:43.688Z,12.93
2022-08-19T23:57:47.374Z,12.73
2022-08-19T23:59:50.993Z,15.13
